createdAt,value
2018-08-27T00:01:41.187Z,1.00
2018-08-27T00:03:45.024Z,1.00
2018-08-27T00:05:48.762Z,1.00
2018-08-27T00:07:57.586Z,1.00
2018-08-27T00:10:01.283Z,1.00
2018-08-27T00:12:05.094Z,1.00
2018-08-27T00:14:08.971Z,1.00
2018-08-27T00:16:23.692Z,1.00
2018-08-27T00:18:27.601Z,1.00
2018-08-27T00:20:31.395Z,1.00
2018-08-27T00:22:36.367Z,1.00
2018-08-27T00:24:45.311Z,1.00
2018-08-27T00:26:49.121Z,1.00
2018-08-27T00:28:52.851Z,1.00
2018-08-27T00:30:56.673Z,1.00
2018-08-27T00:33:00.360Z,1.00
2018-08-27T00:35:04.056Z,1.00
2018-08-27T00:37:08.468Z,1.00
2018-08-27T00:39:13.544Z,1.00
2018-08-27T00:41:19.349Z,1.00
2018-08-27T00:43:23.058Z,1.00
2018-08-27T00:45:26.858Z,1.00
2018-08-27T00:47:30.637Z,1.00
2018-08-27T00:49:34.497Z,1.00
2018-08-27T00:51:38.145Z,1.00
2018-08-27T00:53:44.314Z,1.00
2018-08-27T00:55:47.993Z,1.00
2018-08-27T00:57:51.733Z,1.00
2018-08-27T00:59:55.640Z,1.00
2018-08-27T01:01:59.630Z,1.00
2018-08-27T01:04:03.501Z,1.00
2018-08-27T01:06:07.178Z,1.00
2018-08-27T01:08:10.954Z,1.00
2018-08-27T01:10:14.676Z,1.00
2018-08-27T01:12:18.545Z,1.00
2018-08-27T01:14:22.256Z,1.00
2018-08-27T01:16:26.026Z,1.00
2018-08-27T01:18:29.929Z,1.00
2018-08-27T01:20:33.761Z,1.00
2018-08-27T01:22:37.459Z,1.00
2018-08-27T01:24:41.274Z,1.00
2018-08-27T01:26:45.678Z,1.00
2018-08-27T01:28:49.528Z,1.00
2018-08-27T01:30:53.307Z,1.00
2018-08-27T01:32:56.985Z,1.00
2018-08-27T01:35:01.924Z,1.00
2018-08-27T01:37:05.668Z,1.00
2018-08-27T01:39:09.452Z,1.00
2018-08-27T01:41:13.323Z,1.00
2018-08-27T01:43:17.075Z,1.00
2018-08-27T01:45:22.032Z,1.00
2018-08-27T01:47:25.792Z,1.00
2018-08-27T01:49:29.619Z,1.00
2018-08-27T01:51:33.329Z,1.00
2018-08-27T01:53:37.176Z,1.00
2018-08-27T01:55:40.900Z,1.00
2018-08-27T01:57:44.665Z,1.00
2018-08-27T01:59:59.183Z,1.00
2018-08-27T02:02:03.303Z,1.00
2018-08-27T02:04:06.992Z,1.00
2018-08-27T02:06:10.682Z,1.00
2018-08-27T02:08:14.489Z,1.00
2018-08-27T02:10:18.439Z,1.00
2018-08-27T02:12:22.230Z,1.00
2018-08-27T02:14:26.946Z,1.00
2018-08-27T02:16:30.629Z,1.00
2018-08-27T02:18:34.319Z,1.00
2018-08-27T02:20:38.101Z,1.00
2018-08-27T02:22:41.806Z,1.00
2018-08-27T02:24:45.711Z,1.00
2018-08-27T02:26:49.531Z,1.00
2018-08-27T02:28:53.281Z,1.00
2018-08-27T02:30:56.994Z,1.00
2018-08-27T02:33:01.236Z,1.00
2018-08-27T02:35:05.132Z,1.00
2018-08-27T02:37:08.886Z,1.00
2018-08-27T02:39:14.797Z,1.00
2018-08-27T02:41:18.666Z,1.00
2018-08-27T02:43:22.334Z,1.00
2018-08-27T02:45:28.140Z,1.00
2018-08-27T02:47:31.874Z,1.00
2018-08-27T02:49:36.003Z,1.00
2018-08-27T02:51:39.780Z,1.00
2018-08-27T02:53:43.758Z,1.00
2018-08-27T02:55:47.498Z,1.00
2018-08-27T02:57:51.191Z,1.00
2018-08-27T02:59:54.976Z,1.00
2018-08-27T03:02:00.746Z,1.00
2018-08-27T03:04:04.707Z,1.00
2018-08-27T03:06:12.827Z,1.00
2018-08-27T03:08:16.524Z,1.00
2018-08-27T03:10:20.453Z,1.00
2018-08-27T03:12:24.142Z,1.00
2018-08-27T03:14:28.019Z,1.00
2018-08-27T03:16:31.745Z,1.00
2018-08-27T03:18:35.579Z,1.00
2018-08-27T03:20:40.307Z,1.00
2018-08-27T03:22:44.518Z,1.00
2018-08-27T03:24:48.311Z,1.00
2018-08-27T03:26:52.114Z,1.00
2018-08-27T03:28:55.834Z,1.00
2018-08-27T03:30:59.624Z,1.00
2018-08-27T03:33:03.403Z,1.00
2018-08-27T03:35:08.314Z,1.00
2018-08-27T03:37:12.656Z,1.00
2018-08-27T03:39:16.397Z,1.00
2018-08-27T03:41:20.236Z,1.00
2018-08-27T03:43:28.370Z,1.00
2018-08-27T03:45:32.335Z,1.00
2018-08-27T03:47:36.004Z,1.00
2018-08-27T03:49:39.746Z,1.00
2018-08-27T03:51:43.812Z,1.00
2018-08-27T03:53:47.595Z,1.00
2018-08-27T03:55:51.443Z,1.00
2018-08-27T03:57:55.395Z,1.00
2018-08-27T03:59:59.198Z,1.00
2018-08-27T04:02:03.058Z,1.00
2018-08-27T04:04:11.311Z,1.00
2018-08-27T04:06:17.420Z,1.00
2018-08-27T04:08:21.147Z,1.00
2018-08-27T04:10:24.806Z,1.00
2018-08-27T04:12:28.655Z,1.00
2018-08-27T04:14:32.398Z,1.00
2018-08-27T04:16:36.346Z,1.00
2018-08-27T04:18:40.358Z,1.00
2018-08-27T04:20:44.164Z,1.00
2018-08-27T04:22:48.224Z,1.00
2018-08-27T04:24:52.007Z,1.00
2018-08-27T04:26:55.788Z,1.00
2018-08-27T04:28:59.510Z,1.00
2018-08-27T04:31:03.385Z,1.00
2018-08-27T04:33:07.139Z,1.00
2018-08-27T04:35:10.827Z,1.00
2018-08-27T04:37:14.928Z,1.00
2018-08-27T04:39:18.703Z,1.00
2018-08-27T04:41:22.450Z,1.00
2018-08-27T04:43:26.383Z,1.00
2018-08-27T04:45:30.068Z,1.00
2018-08-27T04:47:33.756Z,1.00
2018-08-27T04:49:37.548Z,1.00
2018-08-27T04:51:41.303Z,1.00
2018-08-27T04:53:44.947Z,1.00
2018-08-27T04:55:48.764Z,1.00
2018-08-27T04:57:52.581Z,1.00
2018-08-27T05:00:01.587Z,1.10
2018-08-27T05:02:06.186Z,4.30
2018-08-27T05:04:10.114Z,5.00
2018-08-27T05:06:13.865Z,10.60
2018-08-27T05:08:17.985Z,12.80
2018-08-27T05:10:21.785Z,17.90
2018-08-27T05:12:26.009Z,25.60
2018-08-27T05:14:29.809Z,27.60
2018-08-27T05:16:33.745Z,28.20
2018-08-27T05:18:37.586Z,28.80
2018-08-27T05:20:41.496Z,30.40
2018-08-27T05:22:45.267Z,35.80
2018-08-27T05:24:49.179Z,38.20
2018-08-27T05:26:52.846Z,40.80
2018-08-27T05:28:56.679Z,43.30
2018-08-27T05:31:00.592Z,46.70
2018-08-27T05:33:04.358Z,46.50
2018-08-27T05:35:08.287Z,46.20
2018-08-27T05:37:12.755Z,48.80
2018-08-27T05:39:16.515Z,53.90
2018-08-27T05:41:20.427Z,56.70
2018-08-27T05:43:24.205Z,57.10
2018-08-27T05:45:28.264Z,57.50
2018-08-27T05:47:31.967Z,60.50
2018-08-27T05:49:36.081Z,60.90
2018-08-27T05:51:39.989Z,61.30
2018-08-27T05:53:43.846Z,62.30
2018-08-27T05:55:47.751Z,66.40
2018-08-27T05:57:51.912Z,67.30
2018-08-27T05:59:55.863Z,70.60
2018-08-27T06:01:59.948Z,71.60
2018-08-27T06:04:03.705Z,71.20
2018-08-27T06:06:07.893Z,72.80
2018-08-27T06:08:11.805Z,74.30
2018-08-27T06:10:15.763Z,72.80
2018-08-27T06:12:19.785Z,76.20
2018-08-27T06:14:23.844Z,74.20
2018-08-27T06:16:27.702Z,75.10
2018-08-27T06:18:31.502Z,75.80
2018-08-27T06:20:35.291Z,75.10
2018-08-27T06:22:39.178Z,74.30
2018-08-27T06:24:42.896Z,72.60
2018-08-27T06:26:46.701Z,71.20
2018-08-27T06:28:50.387Z,69.10
2018-08-27T06:30:55.051Z,69.60
2018-08-27T06:32:59.045Z,68.80
2018-08-27T06:35:02.922Z,68.40
2018-08-27T06:37:07.098Z,67.30
2018-08-27T06:39:11.273Z,67.10
2018-08-27T06:41:15.195Z,65.50
2018-08-27T06:43:19.005Z,65.10
2018-08-27T06:45:22.769Z,65.10
2018-08-27T06:47:26.520Z,63.40
2018-08-27T06:49:30.438Z,63.30
2018-08-27T06:51:34.240Z,64.40
2018-08-27T06:53:38.071Z,61.60
2018-08-27T06:55:41.827Z,60.80
2018-08-27T06:57:45.847Z,57.40
2018-08-27T06:59:49.656Z,57.40
2018-08-27T07:01:53.528Z,57.00
2018-08-27T07:03:57.351Z,55.90
2018-08-27T07:06:00.932Z,53.80
2018-08-27T07:08:05.024Z,53.80
2018-08-27T07:10:08.771Z,53.60
2018-08-27T07:12:13.244Z,54.40
2018-08-27T07:14:16.906Z,53.90
2018-08-27T07:16:20.714Z,51.90
2018-08-27T07:18:24.468Z,52.80
2018-08-27T07:20:28.472Z,53.30
2018-08-27T07:22:32.193Z,51.50
2018-08-27T07:24:37.212Z,53.10
2018-08-27T07:26:41.155Z,53.30
2018-08-27T07:28:44.859Z,53.40
2018-08-27T07:30:48.584Z,54.80
2018-08-27T07:32:52.281Z,54.10
2018-08-27T07:34:55.877Z,54.80
2018-08-27T07:36:59.625Z,55.20
2018-08-27T07:39:03.654Z,54.60
2018-08-27T07:41:07.373Z,53.40
2018-08-27T07:43:11.280Z,55.90
2018-08-27T07:45:15.022Z,56.10
2018-08-27T07:47:18.839Z,56.20
2018-08-27T07:49:22.620Z,56.20
2018-08-27T07:51:26.580Z,56.60
2018-08-27T07:53:31.181Z,55.40
2018-08-27T07:55:34.925Z,57.40
2018-08-27T07:57:38.686Z,56.60
2018-08-27T07:59:42.684Z,56.20
2018-08-27T08:01:46.471Z,57.70
2018-08-27T08:03:50.355Z,56.30
2018-08-27T08:05:54.292Z,57.30
2018-08-27T08:07:58.264Z,60.80
2018-08-27T08:10:01.960Z,62.60
2018-08-27T08:12:05.979Z,68.30
2018-08-27T08:14:10.250Z,66.50
2018-08-27T08:16:14.041Z,66.90
2018-08-27T08:18:19.103Z,70.90
2018-08-27T08:20:22.872Z,71.30
2018-08-27T08:22:30.385Z,71.40
2018-08-27T08:24:34.111Z,71.80
2018-08-27T08:26:37.867Z,70.50
2018-08-27T08:28:41.843Z,69.90
2018-08-27T08:30:45.623Z,67.80
2018-08-27T08:32:49.501Z,68.20
2018-08-27T08:34:53.893Z,68.00
2018-08-27T08:36:57.629Z,62.80
2018-08-27T08:39:01.457Z,63.40
2018-08-27T08:41:05.124Z,63.10
2018-08-27T08:43:08.976Z,61.20
2018-08-27T08:45:12.928Z,61.50
2018-08-27T08:47:16.784Z,59.50
2018-08-27T08:49:20.572Z,60.30
2018-08-27T08:51:25.360Z,58.20
2018-08-27T08:53:29.354Z,57.90
2018-08-27T08:55:33.268Z,56.60
2018-08-27T08:57:37.882Z,56.10
2018-08-27T08:59:41.705Z,55.40
2018-08-27T09:01:45.502Z,53.70
2018-08-27T09:03:49.262Z,56.60
2018-08-27T09:05:53.375Z,54.90
2018-08-27T09:07:57.122Z,55.60
2018-08-27T09:10:00.822Z,56.80
2018-08-27T09:12:04.646Z,58.50
2018-08-27T09:14:08.592Z,53.80
2018-08-27T09:16:12.389Z,57.00
2018-08-27T09:18:16.192Z,56.90
2018-08-27T09:20:20.067Z,55.10
2018-08-27T09:22:23.793Z,59.40
2018-08-27T09:24:27.733Z,58.10
2018-08-27T09:26:32.044Z,59.10
2018-08-27T09:28:35.816Z,61.10
2018-08-27T09:30:39.522Z,61.10
2018-08-27T09:32:43.409Z,59.60
2018-08-27T09:34:47.189Z,59.40
2018-08-27T09:36:50.949Z,61.20
2018-08-27T09:38:54.625Z,60.10
2018-08-27T09:40:58.386Z,58.10
2018-08-27T09:43:02.096Z,57.00
2018-08-27T09:45:05.944Z,57.10
2018-08-27T09:47:09.827Z,58.80
2018-08-27T09:49:13.521Z,58.20
2018-08-27T09:51:18.269Z,57.70
2018-08-27T09:53:21.952Z,60.20
2018-08-27T09:55:25.808Z,60.00
2018-08-27T09:57:29.598Z,59.90
2018-08-27T09:59:33.271Z,59.70
2018-08-27T10:01:38.221Z,59.90
2018-08-27T10:03:42.106Z,59.70
2018-08-27T10:05:46.055Z,59.10
2018-08-27T10:07:49.813Z,60.20
2018-08-27T10:09:54.725Z,59.70
2018-08-27T10:11:58.527Z,60.30
2018-08-27T10:14:02.449Z,62.90
2018-08-27T10:16:06.486Z,62.00
2018-08-27T10:18:10.214Z,62.00
2018-08-27T10:20:13.938Z,63.80
2018-08-27T10:22:17.848Z,64.70
2018-08-27T10:24:21.486Z,65.90
2018-08-27T10:26:25.451Z,66.40
2018-08-27T10:28:29.189Z,66.30
2018-08-27T10:30:33.069Z,64.90
2018-08-27T10:32:36.800Z,64.10
2018-08-27T10:34:40.570Z,66.10
2018-08-27T10:36:44.267Z,64.40
2018-08-27T10:38:48.118Z,65.80
2018-08-27T10:40:51.938Z,64.20
2018-08-27T10:42:55.834Z,66.20
2018-08-27T10:44:59.672Z,66.20
2018-08-27T10:47:03.472Z,65.20
2018-08-27T10:49:07.225Z,65.50
2018-08-27T10:51:11.089Z,66.10
2018-08-27T10:53:14.908Z,68.40
2018-08-27T10:55:18.701Z,67.50
2018-08-27T10:57:22.487Z,66.70
2018-08-27T10:59:26.238Z,67.10
2018-08-27T11:01:29.907Z,69.60
2018-08-27T11:03:33.827Z,67.80
2018-08-27T11:05:37.712Z,68.70
2018-08-27T11:07:41.474Z,70.10
2018-08-27T11:09:45.352Z,71.40
2018-08-27T11:11:49.192Z,72.60
2018-08-27T11:13:53.045Z,74.30
2018-08-27T11:15:56.867Z,75.90
2018-08-27T11:18:00.574Z,75.90
2018-08-27T11:20:04.854Z,74.40
2018-08-27T11:22:08.738Z,73.90
2018-08-27T11:24:17.798Z,72.70
2018-08-27T11:26:21.519Z,73.10
2018-08-27T11:28:26.614Z,71.80
2018-08-27T11:30:30.422Z,72.40
2018-08-27T11:32:34.294Z,70.20
2018-08-27T11:34:38.051Z,69.00
2018-08-27T11:36:41.849Z,67.00
2018-08-27T11:38:45.665Z,65.40
2018-08-27T11:40:49.469Z,65.80
2018-08-27T11:42:53.189Z,66.00
2018-08-27T11:44:57.031Z,66.80
2018-08-27T11:47:00.765Z,68.50
2018-08-27T11:49:04.662Z,65.90
2018-08-27T11:51:08.406Z,65.40
2018-08-27T11:53:12.370Z,63.90
2018-08-27T11:55:16.182Z,63.90
2018-08-27T11:57:19.940Z,64.50
2018-08-27T11:59:23.679Z,61.70
2018-08-27T12:01:27.788Z,62.40
2018-08-27T12:03:31.560Z,62.40
2018-08-27T12:05:35.527Z,63.80
2018-08-27T12:07:39.245Z,62.10
2018-08-27T12:09:43.053Z,59.40
2018-08-27T12:11:46.906Z,60.50
2018-08-27T12:13:50.752Z,60.50
2018-08-27T12:15:54.540Z,58.70
2018-08-27T12:17:58.357Z,63.00
2018-08-27T12:20:02.149Z,62.60
2018-08-27T12:22:05.883Z,62.50
2018-08-27T12:24:09.641Z,62.60
2018-08-27T12:26:13.507Z,61.30
2018-08-27T12:28:17.225Z,62.70
2018-08-27T12:30:21.426Z,64.10
2018-08-27T12:32:25.750Z,65.10
2018-08-27T12:34:29.542Z,64.80
2018-08-27T12:36:33.180Z,67.00
2018-08-27T12:38:36.981Z,65.80
2018-08-27T12:40:40.792Z,64.80
2018-08-27T12:42:44.562Z,65.50
2018-08-27T12:44:48.367Z,67.00
2018-08-27T12:46:52.096Z,64.30
2018-08-27T12:48:55.788Z,64.10
2018-08-27T12:50:59.696Z,62.90
2018-08-27T12:53:03.447Z,62.70
2018-08-27T12:55:07.319Z,62.70
2018-08-27T12:57:11.137Z,62.60
2018-08-27T12:59:14.966Z,60.70
2018-08-27T13:01:18.827Z,60.30
2018-08-27T13:03:22.585Z,61.60
2018-08-27T13:05:26.346Z,61.40
2018-08-27T13:07:31.087Z,58.30
2018-08-27T13:09:34.978Z,60.20
2018-08-27T13:11:39.217Z,60.30
2018-08-27T13:13:43.093Z,59.80
2018-08-27T13:15:46.987Z,57.60
2018-08-27T13:17:50.818Z,58.00
2018-08-27T13:19:54.601Z,57.20
2018-08-27T13:21:59.678Z,59.20
2018-08-27T13:24:03.678Z,59.00
2018-08-27T13:26:07.564Z,58.30
2018-08-27T13:28:11.335Z,55.40
2018-08-27T13:30:15.219Z,55.60
2018-08-27T13:32:18.868Z,55.10
2018-08-27T13:34:22.713Z,56.80
2018-08-27T13:36:26.374Z,56.40
2018-08-27T13:38:30.242Z,55.80
2018-08-27T13:40:34.080Z,54.80
2018-08-27T13:42:38.111Z,57.10
2018-08-27T13:44:42.209Z,57.20
2018-08-27T13:46:46.193Z,56.40
2018-08-27T13:48:50.129Z,56.50
2018-08-27T13:50:53.958Z,56.20
2018-08-27T13:52:57.662Z,56.20
2018-08-27T13:55:01.687Z,57.40
2018-08-27T13:57:05.907Z,56.10
2018-08-27T13:59:09.811Z,57.80
2018-08-27T14:01:13.803Z,58.50
2018-08-27T14:03:17.775Z,58.70
2018-08-27T14:05:21.696Z,57.90
2018-08-27T14:07:25.788Z,57.30
2018-08-27T14:09:29.543Z,58.30
2018-08-27T14:11:33.579Z,58.80
2018-08-27T14:13:37.768Z,57.10
2018-08-27T14:15:41.925Z,56.60
2018-08-27T14:17:46.345Z,57.10
2018-08-27T14:19:50.571Z,58.90
2018-08-27T14:21:54.607Z,59.70
2018-08-27T14:23:58.395Z,60.00
2018-08-27T14:26:02.492Z,60.40
2018-08-27T14:28:06.307Z,59.60
2018-08-27T14:30:10.165Z,61.30
2018-08-27T14:32:14.180Z,60.50
2018-08-27T14:34:18.307Z,60.00
2018-08-27T14:36:22.173Z,61.50
2018-08-27T14:38:25.901Z,61.20
2018-08-27T14:40:29.720Z,63.30
2018-08-27T14:42:33.582Z,63.70
2018-08-27T14:44:37.554Z,65.40
2018-08-27T14:46:41.696Z,67.70
2018-08-27T14:48:45.575Z,70.40
2018-08-27T14:50:49.415Z,72.00
2018-08-27T14:52:53.352Z,72.80
2018-08-27T14:54:57.154Z,73.60
2018-08-27T14:57:01.133Z,76.10
2018-08-27T14:59:05.095Z,77.50
2018-08-27T15:01:11.180Z,76.00
2018-08-27T15:03:14.999Z,74.70
2018-08-27T15:05:18.901Z,74.40
2018-08-27T15:07:22.876Z,74.10
2018-08-27T15:09:26.744Z,72.50
2018-08-27T15:11:30.677Z,72.00
2018-08-27T15:13:34.607Z,71.20
2018-08-27T15:15:38.757Z,68.60
2018-08-27T15:17:42.875Z,66.20
2018-08-27T15:19:47.117Z,66.70
2018-08-27T15:21:51.152Z,66.30
2018-08-27T15:23:55.175Z,64.10
2018-08-27T15:25:59.115Z,65.40
2018-08-27T15:28:03.355Z,65.20
2018-08-27T15:30:07.615Z,65.20
2018-08-27T15:32:11.775Z,61.50
2018-08-27T15:34:15.645Z,60.60
2018-08-27T15:36:19.654Z,60.00
2018-08-27T15:38:23.781Z,61.20
2018-08-27T15:40:28.015Z,61.30
2018-08-27T15:42:32.075Z,60.00
2018-08-27T15:44:36.092Z,60.00
2018-08-27T15:46:43.543Z,60.00
2018-08-27T15:48:47.592Z,60.00
2018-08-27T15:50:51.735Z,60.20
2018-08-27T15:52:55.539Z,58.10
2018-08-27T15:54:59.398Z,58.50
2018-08-27T15:57:03.495Z,57.60
2018-08-27T15:59:07.634Z,56.80
2018-08-27T16:01:13.814Z,57.20
2018-08-27T16:03:18.160Z,59.60
2018-08-27T16:05:22.223Z,57.30
2018-08-27T16:07:26.536Z,56.80
2018-08-27T16:09:30.655Z,58.10
2018-08-27T16:11:34.837Z,59.30
2018-08-27T16:13:39.511Z,57.50
2018-08-27T16:15:43.337Z,58.10
2018-08-27T16:17:47.485Z,60.10
2018-08-27T16:19:59.241Z,56.60
2018-08-27T16:22:26.221Z,56.80
2018-08-27T16:24:35.513Z,57.20
2018-08-27T16:26:43.455Z,59.10
2018-08-27T16:28:47.473Z,57.20
2018-08-27T16:30:51.320Z,57.30
2018-08-27T16:32:55.010Z,60.00
2018-08-27T16:34:58.721Z,57.50
2018-08-27T16:37:02.956Z,60.00
2018-08-27T16:39:08.056Z,60.00
2018-08-27T16:41:12.797Z,60.90
2018-08-27T16:43:18.414Z,61.50
2018-08-27T16:45:22.304Z,60.10
2018-08-27T16:47:27.502Z,60.10
2018-08-27T16:49:33.425Z,62.00
2018-08-27T16:51:37.689Z,60.50
2018-08-27T16:53:43.123Z,62.40
2018-08-27T16:55:47.249Z,59.80
2018-08-27T16:57:51.200Z,61.10
2018-08-27T16:59:55.678Z,61.40
2018-08-27T17:02:01.315Z,60.00
2018-08-27T17:04:06.049Z,60.80
2018-08-27T17:06:10.669Z,62.30
2018-08-27T17:08:16.241Z,62.70
2018-08-27T17:10:21.302Z,62.80
2018-08-27T17:12:25.513Z,61.30
2018-08-27T17:14:30.940Z,61.90
2018-08-27T17:16:35.663Z,63.80
2018-08-27T17:18:40.599Z,64.60
2018-08-27T17:20:45.415Z,62.60
2018-08-27T17:22:53.303Z,62.10
2018-08-27T17:24:57.068Z,63.60
2018-08-27T17:27:00.879Z,65.20
2018-08-27T17:29:08.297Z,63.00
2018-08-27T17:31:14.747Z,64.60
2018-08-27T17:33:20.023Z,64.80
2018-08-27T17:35:23.895Z,65.30
2018-08-27T17:37:27.862Z,65.50
2018-08-27T17:39:32.624Z,65.70
2018-08-27T17:41:37.257Z,65.70
2018-08-27T17:43:41.473Z,66.00
2018-08-27T17:45:45.495Z,65.30
2018-08-27T17:47:49.755Z,66.30
2018-08-27T17:49:53.520Z,66.00
2018-08-27T17:51:57.874Z,67.40
2018-08-27T17:54:02.934Z,67.30
2018-08-27T17:56:07.107Z,68.30
2018-08-27T17:58:11.016Z,69.20
2018-08-27T18:00:16.298Z,68.60
2018-08-27T18:02:20.515Z,71.10
2018-08-27T18:04:25.274Z,71.00
2018-08-27T18:06:29.362Z,70.60
2018-08-27T18:08:35.657Z,72.10
2018-08-27T18:10:39.990Z,72.90
2018-08-27T18:12:44.329Z,72.30
2018-08-27T18:14:49.737Z,74.20
2018-08-27T18:16:55.423Z,73.80
2018-08-27T18:19:16.932Z,75.30
2018-08-27T18:21:20.992Z,74.70
2018-08-27T18:23:24.993Z,76.10
2018-08-27T18:25:29.639Z,76.10
2018-08-27T18:27:33.608Z,76.70
2018-08-27T18:29:37.737Z,79.10
2018-08-27T18:31:41.721Z,79.50
2018-08-27T18:33:49.295Z,81.80
2018-08-27T18:35:53.774Z,83.50
2018-08-27T18:37:57.994Z,81.20
2018-08-27T18:40:02.494Z,83.50
2018-08-27T18:42:08.583Z,83.50
2018-08-27T18:44:15.074Z,83.80
2018-08-27T18:46:18.892Z,82.40
2018-08-27T18:48:22.836Z,82.90
2018-08-27T18:50:26.709Z,84.30
2018-08-27T18:52:30.562Z,83.20
2018-08-27T18:54:36.117Z,83.10
2018-08-27T18:56:41.517Z,85.60
2018-08-27T18:58:45.855Z,83.80
2018-08-27T19:00:49.996Z,85.30
2018-08-27T19:02:54.336Z,85.50
2018-08-27T19:04:59.297Z,86.00
2018-08-27T19:07:03.354Z,86.20
2018-08-27T19:09:08.552Z,86.10
2018-08-27T19:11:13.567Z,85.90
2018-08-27T19:13:17.410Z,86.80
2018-08-27T19:15:21.395Z,86.50
2018-08-27T19:17:25.598Z,86.20
2018-08-27T19:19:33.354Z,86.10
2018-08-27T19:21:37.336Z,84.70
2018-08-27T19:23:44.848Z,85.50
2018-08-27T19:25:50.107Z,85.70
2018-08-27T19:30:06.632Z,84.30
2018-08-27T19:32:13.173Z,85.20
2018-08-27T19:34:17.587Z,85.90
2018-08-27T19:36:22.235Z,86.10
2018-08-27T19:38:26.653Z,86.90
2018-08-27T19:40:30.693Z,87.40
2018-08-27T19:42:35.802Z,88.60
2018-08-27T19:44:40.020Z,89.50
2018-08-27T19:46:44.094Z,89.40
2018-08-27T19:48:47.967Z,89.30
2018-08-27T19:50:58.574Z,90.20
2018-08-27T19:53:13.402Z,90.20
2018-08-27T19:55:22.500Z,90.00
2018-08-27T19:57:31.524Z,89.70
2018-08-27T19:59:35.578Z,90.20
2018-08-27T20:01:40.431Z,90.90
2018-08-27T20:03:44.393Z,90.10
2018-08-27T20:05:48.158Z,90.10
2018-08-27T20:07:52.994Z,90.80
2018-08-27T20:09:56.962Z,90.30
2018-08-27T20:12:00.876Z,90.30
2018-08-27T20:14:04.782Z,90.90
2018-08-27T20:16:08.675Z,90.50
2018-08-27T20:18:12.670Z,92.00
2018-08-27T20:20:16.665Z,91.70
2018-08-27T20:22:20.819Z,91.40
2018-08-27T20:24:24.722Z,91.20
2018-08-27T20:26:28.629Z,91.00
2018-08-27T20:28:32.435Z,91.90
2018-08-27T20:30:36.617Z,91.40
2018-08-27T20:32:40.562Z,91.90
2018-08-27T20:34:44.430Z,92.00
2018-08-27T20:36:48.303Z,91.40
2018-08-27T20:38:52.208Z,91.70
2018-08-27T20:40:56.065Z,91.60
2018-08-27T20:42:59.890Z,91.90
2018-08-27T20:45:03.793Z,92.30
2018-08-27T20:47:07.625Z,92.50
2018-08-27T20:49:11.721Z,92.00
2018-08-27T20:51:15.514Z,92.20
2018-08-27T20:53:19.283Z,92.10
2018-08-27T20:55:23.133Z,92.20
2018-08-27T20:57:26.966Z,92.40
2018-08-27T20:59:31.000Z,92.50
2018-08-27T21:01:34.842Z,92.40
2018-08-27T21:03:38.928Z,92.60
2018-08-27T21:05:43.909Z,92.90
2018-08-27T21:07:47.637Z,92.10
2018-08-27T21:09:51.536Z,92.60
2018-08-27T21:11:55.242Z,92.40
2018-08-27T21:15:17.152Z,92.60
2018-08-27T21:17:21.759Z,93.10
2018-08-27T21:19:25.480Z,92.50
2018-08-27T21:21:29.310Z,92.40
2018-08-27T21:23:33.266Z,92.70
2018-08-27T21:25:37.077Z,92.50
2018-08-27T21:27:42.527Z,92.80
2018-08-27T21:29:46.419Z,92.20
2018-08-27T21:31:51.170Z,92.40
2018-08-27T21:33:55.521Z,92.40
2018-08-27T21:35:59.704Z,92.50
2018-08-27T21:38:03.452Z,92.80
2018-08-27T21:40:07.930Z,92.00
2018-08-27T21:42:11.696Z,92.70
2018-08-27T21:44:15.516Z,92.60
2018-08-27T21:46:19.299Z,91.60
2018-08-27T21:48:24.043Z,91.60
2018-08-27T21:50:29.022Z,91.50
2018-08-27T21:52:32.692Z,91.10
2018-08-27T21:54:36.797Z,91.30
2018-08-27T21:56:40.627Z,91.10
2018-08-27T21:58:44.378Z,90.60
2018-08-27T22:00:55.086Z,91.40
2018-08-27T22:03:04.082Z,90.90
2018-08-27T22:05:08.760Z,90.70
2018-08-27T22:07:15.375Z,90.30
2018-08-27T22:09:19.600Z,90.40
2018-08-27T22:11:23.508Z,89.30
2018-08-27T22:13:27.968Z,89.30
2018-08-27T22:15:32.164Z,89.60
2018-08-27T22:17:38.384Z,88.10
2018-08-27T22:19:42.395Z,89.20
2018-08-27T22:21:47.121Z,88.00
2018-08-27T22:23:51.012Z,88.70
2018-08-27T22:25:54.795Z,89.00
2018-08-27T22:27:59.344Z,89.20
2018-08-27T22:30:03.562Z,90.20
2018-08-27T22:32:07.253Z,90.10
2018-08-27T22:34:11.148Z,90.00
2018-08-27T22:36:14.983Z,88.40
2018-08-27T22:38:18.856Z,88.50
2018-08-27T22:40:22.564Z,88.80
2018-08-27T22:42:26.231Z,89.60
2018-08-27T22:44:29.891Z,88.70
2018-08-27T22:46:33.649Z,88.50
2018-08-27T22:48:37.300Z,90.00
2018-08-27T22:50:41.007Z,89.00
2018-08-27T22:52:44.843Z,89.50
2018-08-27T22:54:48.596Z,89.60
2018-08-27T22:56:52.285Z,89.90
2018-08-27T22:58:56.002Z,89.90
2018-08-27T23:00:59.671Z,90.00
2018-08-27T23:03:08.767Z,89.80
2018-08-27T23:05:13.096Z,90.00
2018-08-27T23:07:16.781Z,90.00
2018-08-27T23:09:20.738Z,90.10
2018-08-27T23:11:24.597Z,90.80
2018-08-27T23:13:28.337Z,90.80
2018-08-27T23:15:32.117Z,90.60
2018-08-27T23:17:35.963Z,90.70
2018-08-27T23:19:39.683Z,90.30
2018-08-27T23:21:43.407Z,90.20
2018-08-27T23:23:47.065Z,91.20
2018-08-27T23:25:50.931Z,91.10
2018-08-27T23:27:54.730Z,90.30
2018-08-27T23:29:58.457Z,90.20
2018-08-27T23:32:02.121Z,90.00
2018-08-27T23:34:05.838Z,90.10
2018-08-27T23:36:09.576Z,89.70
2018-08-27T23:38:13.246Z,90.30
2018-08-27T23:40:17.121Z,89.60
2018-08-27T23:42:20.942Z,89.20
2018-08-27T23:44:24.820Z,88.70
2018-08-27T23:46:28.583Z,88.30
2018-08-27T23:48:32.312Z,87.50
2018-08-27T23:50:36.309Z,86.90
2018-08-27T23:52:40.009Z,88.90
2018-08-27T23:54:43.901Z,87.10
2018-08-27T23:56:47.621Z,86.80
2018-08-27T23:58:51.264Z,86.70
